sensor_id;sensor_type;location;lat;lon;timestamp;temperature;humidity
19552;DHT22;9921;47.186;9.778;2023-02-17T00:02:19;7.40;99.90
19552;DHT22;9921;47.186;9.778;2023-02-17T00:04:47;7.40;99.90
19552;DHT22;9921;47.186;9.778;2023-02-17T00:07:13;7.40;99.90
19552;DHT22;9921;47.186;9.778;2023-02-17T00:09:40;7.50;99.90
19552;DHT22;9921;47.186;9.778;2023-02-17T00:12:07;7.50;99.90
19552;DHT22;9921;47.186;9.778;2023-02-17T00:14:34;7.50;99.90
19552;DHT22;9921;47.186;9.778;2023-02-17T00:17:01;7.50;99.90
19552;DHT22;9921;47.186;9.778;2023-02-17T00:19:27;7.50;99.90
19552;DHT22;9921;47.186;9.778;2023-02-17T00:21:57;7.50;99.90
19552;DHT22;9921;47.186;9.778;2023-02-17T00:24:27;7.50;99.90
19552;DHT22;9921;47.186;9.778;2023-02-17T00:26:54;7.50;99.90
19552;DHT22;9921;47.186;9.778;2023-02-17T00:29:21;7.50;99.90
19552;DHT22;9921;47.186;9.778;2023-02-17T00:31:48;7.50;99.90
19552;DHT22;9921;47.186;9.778;2023-02-17T00:34:16;7.40;99.90
19552;DHT22;9921;47.186;9.778;2023-02-17T00:36:43;7.10;99.90
19552;DHT22;9921;47.186;9.778;2023-02-17T00:39:13;7.10;99.90
19552;DHT22;9921;47.186;9.778;2023-02-17T00:41:41;7.20;99.90
19552;DHT22;9921;47.186;9.778;2023-02-17T00:44:14;7.20;99.90
19552;DHT22;9921;47.186;9.778;2023-02-17T00:46:41;7.20;99.90
19552;DHT22;9921;47.186;9.778;2023-02-17T00:49:13;7.20;99.90
19552;DHT22;9921;47.186;9.778;2023-02-17T00:51:41;7.30;99.90
19552;DHT22;9921;47.186;9.778;2023-02-17T00:54:07;7.30;99.90
19552;DHT22;9921;47.186;9.778;2023-02-17T00:56:36;7.30;99.90
19552;DHT22;9921;47.186;9.778;2023-02-17T00:59:03;7.00;99.90
19552;DHT22;9921;47.186;9.778;2023-02-17T01:01:30;7.10;99.90
19552;DHT22;9921;47.186;9.778;2023-02-17T01:03:58;7.00;99.90
19552;DHT22;9921;47.186;9.778;2023-02-17T01:06:25;7.00;99.90
19552;DHT22;9921;47.186;9.778;2023-02-17T01:08:53;7.10;99.90
19552;DHT22;9921;47.186;9.778;2023-02-17T01:11:21;7.10;99.90
19552;DHT22;9921;47.186;9.778;2023-02-17T01:13:50;7.20;99.90
19552;DHT22;9921;47.186;9.778;2023-02-17T01:16:19;7.20;99.90
19552;DHT22;9921;47.186;9.778;2023-02-17T01:18:46;6.80;99.90
19552;DHT22;9921;47.186;9.778;2023-02-17T01:21:17;6.80;99.90
19552;DHT22;9921;47.186;9.778;2023-02-17T01:23:44;6.90;99.90
19552;DHT22;9921;47.186;9.778;2023-02-17T01:26:14;7.00;99.90
19552;DHT22;9921;47.186;9.778;2023-02-17T01:28:41;7.10;99.90
19552;DHT22;9921;47.186;9.778;2023-02-17T01:31:10;7.20;99.90
19552;DHT22;9921;47.186;9.778;2023-02-17T01:33:38;7.20;99.90
19552;DHT22;9921;47.186;9.778;2023-02-17T01:36:08;7.20;99.90
19552;DHT22;9921;47.186;9.778;2023-02-17T01:38:35;7.30;99.90
19552;DHT22;9921;47.186;9.778;2023-02-17T01:41:03;7.30;99.90
19552;DHT22;9921;47.186;9.778;2023-02-17T01:43:31;7.30;99.90
19552;DHT22;9921;47.186;9.778;2023-02-17T01:45:59;7.30;99.90
19552;DHT22;9921;47.186;9.778;2023-02-17T01:48:30;7.40;99.90
19552;DHT22;9921;47.186;9.778;2023-02-17T01:51:01;7.40;99.90
19552;DHT22;9921;47.186;9.778;2023-02-17T01:53:32;7.40;99.90
19552;DHT22;9921;47.186;9.778;2023-02-17T01:56:01;7.10;99.90
19552;DHT22;9921;47.186;9.778;2023-02-17T01:58:29;7.10;99.90
19552;DHT22;9921;47.186;9.778;2023-02-17T02:00:59;7.10;99.90
19552;DHT22;9921;47.186;9.778;2023-02-17T02:03:30;7.20;99.90
19552;DHT22;9921;47.186;9.778;2023-02-17T02:05:58;7.20;99.90
19552;DHT22;9921;47.186;9.778;2023-02-17T02:08:27;7.10;99.90
19552;DHT22;9921;47.186;9.778;2023-02-17T02:10:56;7.20;99.90
19552;DHT22;9921;47.186;9.778;2023-02-17T02:13:23;7.20;99.90
19552;DHT22;9921;47.186;9.778;2023-02-17T02:15:55;7.20;99.90
19552;DHT22;9921;47.186;9.778;2023-02-17T02:18:39;7.30;99.90
19552;DHT22;9921;47.186;9.778;2023-02-17T02:24:17;7.40;99.90
19552;DHT22;9921;47.186;9.778;2023-02-17T02:27:14;7.30;99.90
19552;DHT22;9921;47.186;9.778;2023-02-17T02:33:01;7.20;99.90
19552;DHT22;9921;47.186;9.778;2023-02-17T02:35:35;7.20;99.90
19552;DHT22;9921;47.186;9.778;2023-02-17T02:38:11;7.30;99.90
19552;DHT22;9921;47.186;9.778;2023-02-17T02:40:41;7.40;99.90
19552;DHT22;9921;47.186;9.778;2023-02-17T02:43:09;7.40;99.90
19552;DHT22;9921;47.186;9.778;2023-02-17T02:45:36;7.40;99.90
19552;DHT22;9921;47.186;9.778;2023-02-17T02:48:04;7.30;99.90
19552;DHT22;9921;47.186;9.778;2023-02-17T02:50:44;7.30;99.90
19552;DHT22;9921;47.186;9.778;2023-02-17T02:53:42;7.30;99.90
19552;DHT22;9921;47.186;9.778;2023-02-17T02:56:21;7.30;99.90
19552;DHT22;9921;47.186;9.778;2023-02-17T02:58:58;7.20;99.90
19552;DHT22;9921;47.186;9.778;2023-02-17T03:01:32;7.10;99.90
19552;DHT22;9921;47.186;9.778;2023-02-17T03:04:07;7.20;99.90
19552;DHT22;9921;47.186;9.778;2023-02-17T03:06:40;7.20;99.90
19552;DHT22;9921;47.186;9.778;2023-02-17T03:09:11;7.10;99.90
19552;DHT22;9921;47.186;9.778;2023-02-17T03:11:40;7.20;99.90
19552;DHT22;9921;47.186;9.778;2023-02-17T03:14:09;7.20;99.90
19552;DHT22;9921;47.186;9.778;2023-02-17T03:16:37;7.30;99.90
19552;DHT22;9921;47.186;9.778;2023-02-17T03:19:07;7.30;99.90
19552;DHT22;9921;47.186;9.778;2023-02-17T03:21:38;7.30;99.90
19552;DHT22;9921;47.186;9.778;2023-02-17T03:24:06;7.20;99.90
19552;DHT22;9921;47.186;9.778;2023-02-17T03:26:33;7.30;99.90
19552;DHT22;9921;47.186;9.778;2023-02-17T03:29:00;7.30;99.90
19552;DHT22;9921;47.186;9.778;2023-02-17T03:31:27;7.30;99.90
19552;DHT22;9921;47.186;9.778;2023-02-17T03:33:53;7.40;99.90
19552;DHT22;9921;47.186;9.778;2023-02-17T03:36:22;7.40;99.90
19552;DHT22;9921;47.186;9.778;2023-02-17T03:38:52;7.40;99.90
19552;DHT22;9921;47.186;9.778;2023-02-17T03:41:18;7.30;99.90
19552;DHT22;9921;47.186;9.778;2023-02-17T03:43:45;7.30;99.90
19552;DHT22;9921;47.186;9.778;2023-02-17T03:46:13;7.20;99.90
19552;DHT22;9921;47.186;9.778;2023-02-17T03:48:41;7.30;99.90
19552;DHT22;9921;47.186;9.778;2023-02-17T03:51:12;7.30;99.90
19552;DHT22;9921;47.186;9.778;2023-02-17T03:53:41;7.30;99.90
19552;DHT22;9921;47.186;9.778;2023-02-17T03:56:09;7.30;99.90
19552;DHT22;9921;47.186;9.778;2023-02-17T03:58:36;7.30;99.90
19552;DHT22;9921;47.186;9.778;2023-02-17T04:01:03;7.30;99.90
19552;DHT22;9921;47.186;9.778;2023-02-17T04:03:30;7.00;99.90
19552;DHT22;9921;47.186;9.778;2023-02-17T04:05:57;6.80;99.90
19552;DHT22;9921;47.186;9.778;2023-02-17T04:08:23;6.80;99.90
19552;DHT22;9921;47.186;9.778;2023-02-17T04:10:52;6.90;99.90
19552;DHT22;9921;47.186;9.778;2023-02-17T04:13:19;7.00;99.90
19552;DHT22;9921;47.186;9.778;2023-02-17T04:15:46;7.00;99.90
19552;DHT22;9921;47.186;9.778;2023-02-17T04:18:13;6.70;99.90
19552;DHT22;9921;47.186;9.778;2023-02-17T04:20:40;6.60;99.90
19552;DHT22;9921;47.186;9.778;2023-02-17T04:23:07;6.60;99.90
19552;DHT22;9921;47.186;9.778;2023-02-17T04:25:34;6.70;99.90
19552;DHT22;9921;47.186;9.778;2023-02-17T04:28:03;6.70;99.90
19552;DHT22;9921;47.186;9.778;2023-02-17T04:30:30;6.80;99.90
19552;DHT22;9921;47.186;9.778;2023-02-17T04:32:57;6.80;99.90
19552;DHT22;9921;47.186;9.778;2023-02-17T04:35:25;6.90;99.90
19552;DHT22;9921;47.186;9.778;2023-02-17T04:37:52;6.90;99.90
19552;DHT22;9921;47.186;9.778;2023-02-17T04:40:19;7.00;99.90
19552;DHT22;9921;47.186;9.778;2023-02-17T04:42:46;7.10;99.90
19552;DHT22;9921;47.186;9.778;2023-02-17T04:45:14;7.20;99.90
19552;DHT22;9921;47.186;9.778;2023-02-17T04:47:41;7.20;99.90
19552;DHT22;9921;47.186;9.778;2023-02-17T04:50:10;7.10;99.90
19552;DHT22;9921;47.186;9.778;2023-02-17T04:52:37;7.20;99.90
19552;DHT22;9921;47.186;9.778;2023-02-17T04:55:05;7.20;99.90
19552;DHT22;9921;47.186;9.778;2023-02-17T04:57:32;7.30;99.90
19552;DHT22;9921;47.186;9.778;2023-02-17T04:59:59;7.30;99.90
19552;DHT22;9921;47.186;9.778;2023-02-17T05:02:28;7.40;99.90
19552;DHT22;9921;47.186;9.778;2023-02-17T05:04:55;7.40;99.90
19552;DHT22;9921;47.186;9.778;2023-02-17T05:07:22;7.40;99.90
19552;DHT22;9921;47.186;9.778;2023-02-17T05:09:49;7.40;99.90
19552;DHT22;9921;47.186;9.778;2023-02-17T05:12:16;7.40;99.90
19552;DHT22;9921;47.186;9.778;2023-02-17T05:14:42;7.40;99.90
19552;DHT22;9921;47.186;9.778;2023-02-17T05:17:09;7.30;99.90
19552;DHT22;9921;47.186;9.778;2023-02-17T05:19:37;7.20;99.90
19552;DHT22;9921;47.186;9.778;2023-02-17T05:22:04;7.20;99.90
19552;DHT22;9921;47.186;9.778;2023-02-17T05:24:31;7.20;99.90
19552;DHT22;9921;47.186;9.778;2023-02-17T05:26:58;7.30;99.90
19552;DHT22;9921;47.186;9.778;2023-02-17T05:29:25;7.20;99.90
19552;DHT22;9921;47.186;9.778;2023-02-17T05:31:52;7.30;99.90
19552;DHT22;9921;47.186;9.778;2023-02-17T05:34:18;7.30;99.90
19552;DHT22;9921;47.186;9.778;2023-02-17T05:36:47;7.20;99.90
19552;DHT22;9921;47.186;9.778;2023-02-17T05:39:14;7.20;99.90
19552;DHT22;9921;47.186;9.778;2023-02-17T05:41:41;7.20;99.90
19552;DHT22;9921;47.186;9.778;2023-02-17T05:44:07;7.20;99.90
19552;DHT22;9921;47.186;9.778;2023-02-17T05:46:34;7.20;99.90
19552;DHT22;9921;47.186;9.778;2023-02-17T05:49:01;7.30;99.90
19552;DHT22;9921;47.186;9.778;2023-02-17T05:51:28;7.30;99.90
19552;DHT22;9921;47.186;9.778;2023-02-17T05:53:56;7.30;99.90
19552;DHT22;9921;47.186;9.778;2023-02-17T05:56:23;7.30;99.90
19552;DHT22;9921;47.186;9.778;2023-02-17T05:58:50;7.30;99.90
19552;DHT22;9921;47.186;9.778;2023-02-17T06:01:16;7.20;99.90
19552;DHT22;9921;47.186;9.778;2023-02-17T06:03:43;7.10;99.90
19552;DHT22;9921;47.186;9.778;2023-02-17T06:06:10;7.00;99.90
19552;DHT22;9921;47.186;9.778;2023-02-17T06:08:37;7.00;99.90
19552;DHT22;9921;47.186;9.778;2023-02-17T06:11:05;7.10;99.90
19552;DHT22;9921;47.186;9.778;2023-02-17T06:13:32;7.10;99.90
19552;DHT22;9921;47.186;9.778;2023-02-17T06:15:59;7.10;99.90
19552;DHT22;9921;47.186;9.778;2023-02-17T06:18:26;7.10;99.90
19552;DHT22;9921;47.186;9.778;2023-02-17T06:20:54;7.10;99.90
19552;DHT22;9921;47.186;9.778;2023-02-17T06:23:21;7.10;99.90
19552;DHT22;9921;47.186;9.778;2023-02-17T06:25:48;6.90;99.90
19552;DHT22;9921;47.186;9.778;2023-02-17T06:28:16;6.90;99.90
19552;DHT22;9921;47.186;9.778;2023-02-17T06:30:44;7.00;99.90
19552;DHT22;9921;47.186;9.778;2023-02-17T06:33:10;7.00;99.90
19552;DHT22;9921;47.186;9.778;2023-02-17T06:35:37;7.10;99.90
19552;DHT22;9921;47.186;9.778;2023-02-17T06:38:04;6.80;99.90
19552;DHT22;9921;47.186;9.778;2023-02-17T06:40:31;6.60;99.90
19552;DHT22;9921;47.186;9.778;2023-02-17T06:42:58;6.40;99.90
19552;DHT22;9921;47.186;9.778;2023-02-17T06:45:26;6.50;99.90
19552;DHT22;9921;47.186;9.778;2023-02-17T06:47:53;6.60;99.90
19552;DHT22;9921;47.186;9.778;2023-02-17T06:50:20;6.70;99.90
19552;DHT22;9921;47.186;9.778;2023-02-17T06:52:47;6.80;99.90
19552;DHT22;9921;47.186;9.778;2023-02-17T06:55:14;6.70;99.90
19552;DHT22;9921;47.186;9.778;2023-02-17T06:57:40;6.70;99.90
19552;DHT22;9921;47.186;9.778;2023-02-17T07:00:08;6.70;99.90
19552;DHT22;9921;47.186;9.778;2023-02-17T07:02:38;6.80;99.90
19552;DHT22;9921;47.186;9.778;2023-02-17T07:05:06;6.80;99.90
19552;DHT22;9921;47.186;9.778;2023-02-17T07:07:33;6.90;99.90
19552;DHT22;9921;47.186;9.778;2023-02-17T07:10:00;7.00;99.90
19552;DHT22;9921;47.186;9.778;2023-02-17T07:12:28;7.00;99.90
19552;DHT22;9921;47.186;9.778;2023-02-17T07:14:55;7.00;99.90
19552;DHT22;9921;47.186;9.778;2023-02-17T07:17:22;6.70;99.90
19552;DHT22;9921;47.186;9.778;2023-02-17T07:19:50;6.80;99.90
19552;DHT22;9921;47.186;9.778;2023-02-17T07:22:17;6.90;99.90
19552;DHT22;9921;47.186;9.778;2023-02-17T07:24:44;7.00;99.90
19552;DHT22;9921;47.186;9.778;2023-02-17T07:27:11;7.10;99.90
19552;DHT22;9921;47.186;9.778;2023-02-17T07:29:38;7.00;99.90
19552;DHT22;9921;47.186;9.778;2023-02-17T07:32:05;6.90;99.90
19552;DHT22;9921;47.186;9.778;2023-02-17T07:34:31;7.00;99.90
19552;DHT22;9921;47.186;9.778;2023-02-17T07:37:00;7.00;99.90
19552;DHT22;9921;47.186;9.778;2023-02-17T07:39:26;7.10;99.90
19552;DHT22;9921;47.186;9.778;2023-02-17T07:41:53;7.20;99.90
19552;DHT22;9921;47.186;9.778;2023-02-17T07:44:25;7.30;99.90
19552;DHT22;9921;47.186;9.778;2023-02-17T07:46:52;7.30;99.90
19552;DHT22;9921;47.186;9.778;2023-02-17T07:49:18;7.30;99.90
19552;DHT22;9921;47.186;9.778;2023-02-17T07:51:45;7.40;99.90
19552;DHT22;9921;47.186;9.778;2023-02-17T07:54:14;7.40;99.90
19552;DHT22;9921;47.186;9.778;2023-02-17T07:56:41;7.50;99.90
19552;DHT22;9921;47.186;9.778;2023-02-17T07:59:08;7.50;99.90
19552;DHT22;9921;47.186;9.778;2023-02-17T08:01:35;7.60;99.90
19552;DHT22;9921;47.186;9.778;2023-02-17T08:04:02;7.70;99.90
19552;DHT22;9921;47.186;9.778;2023-02-17T08:06:29;7.70;99.90
19552;DHT22;9921;47.186;9.778;2023-02-17T08:08:56;7.80;99.90
19552;DHT22;9921;47.186;9.778;2023-02-17T08:11:42;7.90;99.90
19552;DHT22;9921;47.186;9.778;2023-02-17T08:14:30;8.00;99.90
19552;DHT22;9921;47.186;9.778;2023-02-17T08:16:58;8.00;99.90
19552;DHT22;9921;47.186;9.778;2023-02-17T08:19:25;8.00;99.90
19552;DHT22;9921;47.186;9.778;2023-02-17T08:21:52;8.10;99.90
19552;DHT22;9921;47.186;9.778;2023-02-17T08:24:19;8.10;99.90
19552;DHT22;9921;47.186;9.778;2023-02-17T08:26:47;8.20;99.90
19552;DHT22;9921;47.186;9.778;2023-02-17T08:29:14;8.30;99.90
19552;DHT22;9921;47.186;9.778;2023-02-17T08:31:41;8.30;99.90
19552;DHT22;9921;47.186;9.778;2023-02-17T08:34:10;8.30;99.90
19552;DHT22;9921;47.186;9.778;2023-02-17T08:36:37;8.40;99.90
19552;DHT22;9921;47.186;9.778;2023-02-17T08:39:05;8.50;99.90
19552;DHT22;9921;47.186;9.778;2023-02-17T08:41:34;8.60;99.90
19552;DHT22;9921;47.186;9.778;2023-02-17T08:44:06;8.70;99.90
19552;DHT22;9921;47.186;9.778;2023-02-17T08:46:34;8.80;99.90
19552;DHT22;9921;47.186;9.778;2023-02-17T08:49:01;8.80;99.90
19552;DHT22;9921;47.186;9.778;2023-02-17T08:51:28;8.90;99.90
19552;DHT22;9921;47.186;9.778;2023-02-17T08:53:57;8.80;99.90
19552;DHT22;9921;47.186;9.778;2023-02-17T08:56:25;8.70;99.90
19552;DHT22;9921;47.186;9.778;2023-02-17T08:58:53;8.80;99.90
19552;DHT22;9921;47.186;9.778;2023-02-17T09:01:21;8.80;99.90
19552;DHT22;9921;47.186;9.778;2023-02-17T09:03:50;8.80;99.90
19552;DHT22;9921;47.186;9.778;2023-02-17T09:06:17;8.70;99.90
19552;DHT22;9921;47.186;9.778;2023-02-17T09:08:44;8.80;99.90
19552;DHT22;9921;47.186;9.778;2023-02-17T09:11:11;8.80;99.90
19552;DHT22;9921;47.186;9.778;2023-02-17T09:13:40;8.70;99.90
19552;DHT22;9921;47.186;9.778;2023-02-17T09:16:07;8.70;99.90
19552;DHT22;9921;47.186;9.778;2023-02-17T09:18:35;8.70;99.90
19552;DHT22;9921;47.186;9.778;2023-02-17T09:21:05;8.80;99.90
19552;DHT22;9921;47.186;9.778;2023-02-17T09:23:32;8.90;99.90
19552;DHT22;9921;47.186;9.778;2023-02-17T09:26:03;9.00;99.90
19552;DHT22;9921;47.186;9.778;2023-02-17T09:28:31;9.10;99.90
19552;DHT22;9921;47.186;9.778;2023-02-17T09:30:58;9.00;99.90
19552;DHT22;9921;47.186;9.778;2023-02-17T09:33:25;8.90;99.90
19552;DHT22;9921;47.186;9.778;2023-02-17T09:35:53;9.00;99.90
19552;DHT22;9921;47.186;9.778;2023-02-17T09:38:20;9.10;99.90
19552;DHT22;9921;47.186;9.778;2023-02-17T09:40:49;9.20;99.90
19552;DHT22;9921;47.186;9.778;2023-02-17T09:43:17;9.30;99.90
19552;DHT22;9921;47.186;9.778;2023-02-17T09:45:47;9.30;99.90
19552;DHT22;9921;47.186;9.778;2023-02-17T09:48:18;9.50;99.90
19552;DHT22;9921;47.186;9.778;2023-02-17T09:50:53;9.60;99.90
19552;DHT22;9921;47.186;9.778;2023-02-17T09:53:27;9.70;99.90
19552;DHT22;9921;47.186;9.778;2023-02-17T09:55:58;9.80;99.90
19552;DHT22;9921;47.186;9.778;2023-02-17T09:58:32;9.80;99.90
19552;DHT22;9921;47.186;9.778;2023-02-17T10:01:02;9.90;99.90
19552;DHT22;9921;47.186;9.778;2023-02-17T10:03:36;9.90;99.90
19552;DHT22;9921;47.186;9.778;2023-02-17T10:06:11;9.60;99.90
19552;DHT22;9921;47.186;9.778;2023-02-17T10:08:46;9.50;99.90
19552;DHT22;9921;47.186;9.778;2023-02-17T10:11:22;9.50;99.90
19552;DHT22;9921;47.186;9.778;2023-02-17T10:13:58;9.50;99.90
19552;DHT22;9921;47.186;9.778;2023-02-17T10:16:29;9.40;99.90
19552;DHT22;9921;47.186;9.778;2023-02-17T10:19:03;9.40;99.90
19552;DHT22;9921;47.186;9.778;2023-02-17T10:21:37;9.40;99.90
19552;DHT22;9921;47.186;9.778;2023-02-17T10:24:06;9.60;99.90
19552;DHT22;9921;47.186;9.778;2023-02-17T10:26:56;9.60;99.90
19552;DHT22;9921;47.186;9.778;2023-02-17T10:29:33;9.60;99.90
19552;DHT22;9921;47.186;9.778;2023-02-17T10:32:17;9.70;99.90
19552;DHT22;9921;47.186;9.778;2023-02-17T10:35:01;9.80;99.90
19552;DHT22;9921;47.186;9.778;2023-02-17T10:37:44;10.00;99.90
19552;DHT22;9921;47.186;9.778;2023-02-17T10:40:16;10.10;99.90
19552;DHT22;9921;47.186;9.778;2023-02-17T10:42:44;10.20;99.90
19552;DHT22;9921;47.186;9.778;2023-02-17T10:45:18;10.20;99.90
19552;DHT22;9921;47.186;9.778;2023-02-17T10:47:50;10.10;99.90
19552;DHT22;9921;47.186;9.778;2023-02-17T10:50:21;10.00;99.90
19552;DHT22;9921;47.186;9.778;2023-02-17T10:52:49;10.00;99.90
19552;DHT22;9921;47.186;9.778;2023-02-17T10:55:24;10.00;99.90
19552;DHT22;9921;47.186;9.778;2023-02-17T10:58:03;10.00;99.90
19552;DHT22;9921;47.186;9.778;2023-02-17T11:00:31;10.00;99.90
19552;DHT22;9921;47.186;9.778;2023-02-17T11:02:58;10.10;99.90
19552;DHT22;9921;47.186;9.778;2023-02-17T11:05:32;10.10;99.90
19552;DHT22;9921;47.186;9.778;2023-02-17T11:08:03;10.10;99.90
19552;DHT22;9921;47.186;9.778;2023-02-17T11:10:33;10.10;99.90
19552;DHT22;9921;47.186;9.778;2023-02-17T11:13:02;10.00;99.90
19552;DHT22;9921;47.186;9.778;2023-02-17T11:15:33;10.10;99.90
19552;DHT22;9921;47.186;9.778;2023-02-17T11:18:08;10.20;99.90
19552;DHT22;9921;47.186;9.778;2023-02-17T11:20:36;10.30;99.90
19552;DHT22;9921;47.186;9.778;2023-02-17T11:23:06;10.30;99.90
19552;DHT22;9921;47.186;9.778;2023-02-17T11:25:36;10.40;99.90
19552;DHT22;9921;47.186;9.778;2023-02-17T11:28:05;10.40;99.90
19552;DHT22;9921;47.186;9.778;2023-02-17T11:30:38;10.40;99.90
19552;DHT22;9921;47.186;9.778;2023-02-17T11:33:12;10.60;99.90
19552;DHT22;9921;47.186;9.778;2023-02-17T11:35:47;10.60;99.90
19552;DHT22;9921;47.186;9.778;2023-02-17T11:38:16;10.70;99.90
19552;DHT22;9921;47.186;9.778;2023-02-17T11:40:53;10.90;99.90
19552;DHT22;9921;47.186;9.778;2023-02-17T11:43:20;11.00;99.90
19552;DHT22;9921;47.186;9.778;2023-02-17T11:48:56;11.30;99.90
19552;DHT22;9921;47.186;9.778;2023-02-17T11:51:38;11.30;99.90
19552;DHT22;9921;47.186;9.778;2023-02-17T11:54:16;11.20;99.90
19552;DHT22;9921;47.186;9.778;2023-02-17T11:56:58;11.20;99.90
19552;DHT22;9921;47.186;9.778;2023-02-17T11:59:48;11.20;99.90
19552;DHT22;9921;47.186;9.778;2023-02-17T12:02:26;11.20;99.90
19552;DHT22;9921;47.186;9.778;2023-02-17T12:05:06;11.30;99.90
19552;DHT22;9921;47.186;9.778;2023-02-17T12:07:45;11.30;99.90
19552;DHT22;9921;47.186;9.778;2023-02-17T12:10:23;11.40;99.90
19552;DHT22;9921;47.186;9.778;2023-02-17T12:13:06;11.60;99.90
19552;DHT22;9921;47.186;9.778;2023-02-17T12:15:53;11.60;99.90
19552;DHT22;9921;47.186;9.778;2023-02-17T12:18:40;11.70;99.90
19552;DHT22;9921;47.186;9.778;2023-02-17T12:21:13;11.70;99.90
19552;DHT22;9921;47.186;9.778;2023-02-17T12:23:57;11.80;99.90
19552;DHT22;9921;47.186;9.778;2023-02-17T12:26:34;11.80;99.90
19552;DHT22;9921;47.186;9.778;2023-02-17T12:29:14;11.80;99.90
19552;DHT22;9921;47.186;9.778;2023-02-17T12:31:55;11.70;99.90
19552;DHT22;9921;47.186;9.778;2023-02-17T12:34:29;11.60;99.90
19552;DHT22;9921;47.186;9.778;2023-02-17T12:36:58;11.50;99.90
19552;DHT22;9921;47.186;9.778;2023-02-17T12:39:29;11.50;99.90
19552;DHT22;9921;47.186;9.778;2023-02-17T12:42:00;11.40;99.90
19552;DHT22;9921;47.186;9.778;2023-02-17T12:44:31;11.30;99.90
19552;DHT22;9921;47.186;9.778;2023-02-17T12:47:03;11.40;99.90
19552;DHT22;9921;47.186;9.778;2023-02-17T12:49:38;11.40;99.90
19552;DHT22;9921;47.186;9.778;2023-02-17T12:52:11;11.50;99.90
19552;DHT22;9921;47.186;9.778;2023-02-17T12:54:44;11.60;99.90
19552;DHT22;9921;47.186;9.778;2023-02-17T12:57:21;11.70;99.90
19552;DHT22;9921;47.186;9.778;2023-02-17T12:59:54;11.80;99.90
19552;DHT22;9921;47.186;9.778;2023-02-17T13:02:25;11.80;99.90
19552;DHT22;9921;47.186;9.778;2023-02-17T13:04:58;11.90;99.90
19552;DHT22;9921;47.186;9.778;2023-02-17T13:07:41;11.90;99.90
19552;DHT22;9921;47.186;9.778;2023-02-17T13:10:19;12.00;99.90
19552;DHT22;9921;47.186;9.778;2023-02-17T13:12:56;12.00;99.90
19552;DHT22;9921;47.186;9.778;2023-02-17T13:15:33;12.00;99.90
19552;DHT22;9921;47.186;9.778;2023-02-17T13:18:13;12.00;99.90
19552;DHT22;9921;47.186;9.778;2023-02-17T13:20:52;12.00;99.90
19552;DHT22;9921;47.186;9.778;2023-02-17T13:23:37;11.90;99.90
19552;DHT22;9921;47.186;9.778;2023-02-17T13:26:25;11.90;99.90
19552;DHT22;9921;47.186;9.778;2023-02-17T13:29:06;12.00;99.90
19552;DHT22;9921;47.186;9.778;2023-02-17T13:31:45;11.70;99.90
19552;DHT22;9921;47.186;9.778;2023-02-17T13:34:33;11.70;99.90
19552;DHT22;9921;47.186;9.778;2023-02-17T13:37:16;11.70;99.90
19552;DHT22;9921;47.186;9.778;2023-02-17T13:39:45;11.70;99.90
19552;DHT22;9921;47.186;9.778;2023-02-17T13:42:37;11.70;99.90
19552;DHT22;9921;47.186;9.778;2023-02-17T13:45:19;11.70;99.90
19552;DHT22;9921;47.186;9.778;2023-02-17T13:47:49;11.70;99.90
19552;DHT22;9921;47.186;9.778;2023-02-17T13:50:29;11.70;99.90
19552;DHT22;9921;47.186;9.778;2023-02-17T13:53:01;11.60;99.90
19552;DHT22;9921;47.186;9.778;2023-02-17T13:55:30;11.70;99.90
19552;DHT22;9921;47.186;9.778;2023-02-17T13:57:58;11.60;99.90
19552;DHT22;9921;47.186;9.778;2023-02-17T14:00:27;11.60;99.90
19552;DHT22;9921;47.186;9.778;2023-02-17T14:02:57;11.70;99.90
19552;DHT22;9921;47.186;9.778;2023-02-17T14:05:27;11.70;99.90
19552;DHT22;9921;47.186;9.778;2023-02-17T14:07:58;11.70;99.90
19552;DHT22;9921;47.186;9.778;2023-02-17T14:10:26;11.70;99.90
19552;DHT22;9921;47.186;9.778;2023-02-17T14:12:56;11.80;99.90
19552;DHT22;9921;47.186;9.778;2023-02-17T14:15:26;11.80;99.90
19552;DHT22;9921;47.186;9.778;2023-02-17T14:17:55;11.80;99.90
19552;DHT22;9921;47.186;9.778;2023-02-17T14:20:32;11.90;99.90
19552;DHT22;9921;47.186;9.778;2023-02-17T14:23:01;11.90;99.90
19552;DHT22;9921;47.186;9.778;2023-02-17T14:25:31;11.90;99.90
19552;DHT22;9921;47.186;9.778;2023-02-17T14:27:59;11.90;99.90
19552;DHT22;9921;47.186;9.778;2023-02-17T14:30:29;11.90;99.90
19552;DHT22;9921;47.186;9.778;2023-02-17T14:33:06;11.60;99.90
19552;DHT22;9921;47.186;9.778;2023-02-17T14:35:34;11.20;99.90
19552;DHT22;9921;47.186;9.778;2023-02-17T14:38:17;11.00;99.90
19552;DHT22;9921;47.186;9.778;2023-02-17T14:40:45;10.90;99.90
19552;DHT22;9921;47.186;9.778;2023-02-17T14:43:12;11.00;99.90
19552;DHT22;9921;47.186;9.778;2023-02-17T14:45:42;11.10;99.90
19552;DHT22;9921;47.186;9.778;2023-02-17T14:48:10;11.20;99.90
19552;DHT22;9921;47.186;9.778;2023-02-17T14:50:37;11.30;99.90
19552;DHT22;9921;47.186;9.778;2023-02-17T14:53:11;11.40;99.90
19552;DHT22;9921;47.186;9.778;2023-02-17T14:55:48;11.50;99.90
19552;DHT22;9921;47.186;9.778;2023-02-17T14:58:20;11.50;99.90
19552;DHT22;9921;47.186;9.778;2023-02-17T15:00:48;11.30;99.90
19552;DHT22;9921;47.186;9.778;2023-02-17T15:03:17;11.10;99.90
19552;DHT22;9921;47.186;9.778;2023-02-17T15:05:45;11.10;99.90
19552;DHT22;9921;47.186;9.778;2023-02-17T15:08:16;11.10;99.90
19552;DHT22;9921;47.186;9.778;2023-02-17T15:10:44;11.20;99.90
19552;DHT22;9921;47.186;9.778;2023-02-17T15:13:17;11.30;99.90
19552;DHT22;9921;47.186;9.778;2023-02-17T15:15:45;11.30;99.90
19552;DHT22;9921;47.186;9.778;2023-02-17T15:18:19;11.40;99.90
19552;DHT22;9921;47.186;9.778;2023-02-17T15:20:48;11.30;99.90
19552;DHT22;9921;47.186;9.778;2023-02-17T15:23:20;11.40;99.90
19552;DHT22;9921;47.186;9.778;2023-02-17T15:25:50;11.30;99.90
19552;DHT22;9921;47.186;9.778;2023-02-17T15:28:21;11.20;99.90
19552;DHT22;9921;47.186;9.778;2023-02-17T15:30:52;11.10;99.90
19552;DHT22;9921;47.186;9.778;2023-02-17T15:33:26;10.90;99.90
19552;DHT22;9921;47.186;9.778;2023-02-17T15:35:53;10.70;99.90
19552;DHT22;9921;47.186;9.778;2023-02-17T15:38:21;10.60;99.90
19552;DHT22;9921;47.186;9.778;2023-02-17T15:40:51;10.70;99.90
19552;DHT22;9921;47.186;9.778;2023-02-17T15:43:22;10.70;99.90
19552;DHT22;9921;47.186;9.778;2023-02-17T15:45:52;10.80;99.90
19552;DHT22;9921;47.186;9.778;2023-02-17T15:48:26;10.80;99.90
19552;DHT22;9921;47.186;9.778;2023-02-17T15:50:57;10.90;99.90
19552;DHT22;9921;47.186;9.778;2023-02-17T15:53:26;10.60;99.90
19552;DHT22;9921;47.186;9.778;2023-02-17T15:55:56;10.40;99.90
19552;DHT22;9921;47.186;9.778;2023-02-17T15:58:26;10.30;99.90
19552;DHT22;9921;47.186;9.778;2023-02-17T16:00:56;10.40;99.90
19552;DHT22;9921;47.186;9.778;2023-02-17T16:03:27;10.40;99.90
19552;DHT22;9921;47.186;9.778;2023-02-17T16:05:53;10.50;99.90
19552;DHT22;9921;47.186;9.778;2023-02-17T16:08:20;10.50;99.90
19552;DHT22;9921;47.186;9.778;2023-02-17T16:10:47;10.50;99.90
19552;DHT22;9921;47.186;9.778;2023-02-17T16:13:17;10.50;99.90
19552;DHT22;9921;47.186;9.778;2023-02-17T16:15:45;10.50;99.90
19552;DHT22;9921;47.186;9.778;2023-02-17T16:18:19;10.50;99.90
19552;DHT22;9921;47.186;9.778;2023-02-17T16:20:48;10.60;99.90
19552;DHT22;9921;47.186;9.778;2023-02-17T16:23:15;10.50;99.90
19552;DHT22;9921;47.186;9.778;2023-02-17T16:25:43;10.50;99.90
19552;DHT22;9921;47.186;9.778;2023-02-17T16:28:13;10.40;99.90